sensor_id;sensor_type;location;lat;lon;timestamp;pressure;altitude;pressure_sealevel;temperature;humidity
33625;BME280;19962;47.820;1.930;2023-08-30T00:01:07;100063.31;;;17.07;79.53
33625;BME280;19962;47.820;1.930;2023-08-30T00:03:34;100058.06;;;17.01;79.96
33625;BME280;19962;47.820;1.930;2023-08-30T00:06:04;100060.28;;;17.04;79.92
33625;BME280;19962;47.820;1.930;2023-08-30T00:08:31;100056.66;;;17.03;79.82
33625;BME280;19962;47.820;1.930;2023-08-30T00:10:58;100055.25;;;17.06;79.78
33625;BME280;19962;47.820;1.930;2023-08-30T00:13:30;100059.72;;;17.07;79.61
33625;BME280;19962;47.820;1.930;2023-08-30T00:15:57;100054.72;;;17.04;79.75
33625;BME280;19962;47.820;1.930;2023-08-30T00:18:23;100049.72;;;17.06;79.42
33625;BME280;19962;47.820;1.930;2023-08-30T00:20:49;100044.50;;;17.04;79.60
33625;BME280;19962;47.820;1.930;2023-08-30T00:23:15;100045.06;;;17.01;79.69
33625;BME280;19962;47.820;1.930;2023-08-30T00:25:42;100037.31;;;16.93;79.86
33625;BME280;19962;47.820;1.930;2023-08-30T00:28:08;100042.06;;;16.93;79.99
33625;BME280;19962;47.820;1.930;2023-08-30T00:30:35;100044.22;;;16.96;79.46
33625;BME280;19962;47.820;1.930;2023-08-30T00:33:01;100039.03;;;16.84;79.81
33625;BME280;19962;47.820;1.930;2023-08-30T00:35:27;100035.41;;;16.89;79.60
33625;BME280;19962;47.820;1.930;2023-08-30T00:37:53;100033.75;;;16.93;79.64
33625;BME280;19962;47.820;1.930;2023-08-30T00:40:23;100024.34;;;16.89;79.55
33625;BME280;19962;47.820;1.930;2023-08-30T00:42:50;100021.25;;;16.90;79.73
33625;BME280;19962;47.820;1.930;2023-08-30T00:45:16;100025.47;;;16.78;79.86
33625;BME280;19962;47.820;1.930;2023-08-30T00:47:42;100023.25;;;16.80;79.93
33625;BME280;19962;47.820;1.930;2023-08-30T00:50:09;100017.69;;;16.85;79.58
33625;BME280;19962;47.820;1.930;2023-08-30T00:52:36;100020.47;;;16.85;79.11
33625;BME280;19962;47.820;1.930;2023-08-30T00:55:02;100020.50;;;16.80;79.28
33625;BME280;19962;47.820;1.930;2023-08-30T00:57:28;100018.84;;;16.74;79.72
33625;BME280;19962;47.820;1.930;2023-08-30T00:59:56;100010.53;;;16.74;79.75
33625;BME280;19962;47.820;1.930;2023-08-30T01:02:22;100005.81;;;16.74;79.81
33625;BME280;19962;47.820;1.930;2023-08-30T01:04:48;100006.34;;;16.76;79.57
33625;BME280;19962;47.820;1.930;2023-08-30T01:07:15;100013.56;;;16.72;79.71
33625;BME280;19962;47.820;1.930;2023-08-30T01:09:41;100006.38;;;16.71;79.50
33625;BME280;19962;47.820;1.930;2023-08-30T01:12:29;100006.69;;;16.65;79.75
33625;BME280;19962;47.820;1.930;2023-08-30T01:14:59;100001.72;;;16.62;79.84
33625;BME280;19962;47.820;1.930;2023-08-30T01:17:28;100001.69;;;16.72;79.31
33625;BME280;19962;47.820;1.930;2023-08-30T01:20:05;100004.47;;;16.67;79.69
33625;BME280;19962;47.820;1.930;2023-08-30T01:25:31;99998.94;;;16.67;79.74
33625;BME280;19962;47.820;1.930;2023-08-30T01:28:03;99996.16;;;16.67;79.50
33625;BME280;19962;47.820;1.930;2023-08-30T01:30:32;100000.31;;;16.69;79.67
33625;BME280;19962;47.820;1.930;2023-08-30T01:33:01;99992.00;;;16.69;79.73
33625;BME280;19962;47.820;1.930;2023-08-30T01:35:28;99999.44;;;16.74;79.56
33625;BME280;19962;47.820;1.930;2023-08-30T01:37:59;100001.13;;;16.70;79.57
33625;BME280;19962;47.820;1.930;2023-08-30T01:40:28;100005.81;;;16.74;79.39
33625;BME280;19962;47.820;1.930;2023-08-30T01:42:56;100006.13;;;16.68;79.89
33625;BME280;19962;47.820;1.930;2023-08-30T01:45:24;99998.94;;;16.67;79.98
33625;BME280;19962;47.820;1.930;2023-08-30T01:47:51;99998.91;;;16.72;79.80
33625;BME280;19962;47.820;1.930;2023-08-30T01:50:20;99991.69;;;16.76;79.45
33625;BME280;19962;47.820;1.930;2023-08-30T01:52:47;99993.31;;;16.82;79.34
33625;BME280;19962;47.820;1.930;2023-08-30T01:55:14;99985.84;;;16.82;79.38
33625;BME280;19962;47.820;1.930;2023-08-30T01:57:41;99990.03;;;16.80;79.59
33625;BME280;19962;47.820;1.930;2023-08-30T02:00:07;99984.44;;;16.85;79.42
33625;BME280;19962;47.820;1.930;2023-08-30T02:02:34;99987.47;;;16.88;79.36
33625;BME280;19962;47.820;1.930;2023-08-30T02:05:00;99987.75;;;16.87;79.36
33625;BME280;19962;47.820;1.930;2023-08-30T02:07:39;99981.41;;;16.86;79.33
33625;BME280;19962;47.820;1.930;2023-08-30T02:10:11;99977.22;;;16.89;79.37
33625;BME280;19962;47.820;1.930;2023-08-30T02:12:48;99985.50;;;16.94;79.60
33625;BME280;19962;47.820;1.930;2023-08-30T02:15:16;99981.69;;;16.85;79.84
33625;BME280;19962;47.820;1.930;2023-08-30T02:17:44;99978.91;;;16.85;79.85
33625;BME280;19962;47.820;1.930;2023-08-30T02:20:10;99980.00;;;16.89;79.35
33625;BME280;19962;47.820;1.930;2023-08-30T02:22:37;99981.66;;;16.90;79.59
33625;BME280;19962;47.820;1.930;2023-08-30T02:25:03;99985.78;;;16.92;79.56
33625;BME280;19962;47.820;1.930;2023-08-30T02:27:32;99978.00;;;16.94;79.43
33625;BME280;19962;47.820;1.930;2023-08-30T02:29:58;99970.00;;;16.88;79.71
33625;BME280;19962;47.820;1.930;2023-08-30T02:32:24;99974.47;;;16.89;79.54
33625;BME280;19962;47.820;1.930;2023-08-30T02:34:52;99975.00;;;16.91;79.49
33625;BME280;19962;47.820;1.930;2023-08-30T02:37:18;99971.66;;;16.94;79.27
33625;BME280;19962;47.820;1.930;2023-08-30T02:39:45;99966.13;;;16.94;79.27
33625;BME280;19962;47.820;1.930;2023-08-30T02:42:11;99969.41;;;16.96;79.47
33625;BME280;19962;47.820;1.930;2023-08-30T02:44:37;99969.66;;;16.99;79.15
33625;BME280;19962;47.820;1.930;2023-08-30T02:47:04;99964.72;;;16.96;79.40
33625;BME280;19962;47.820;1.930;2023-08-30T02:49:30;99972.47;;;16.94;79.29
33625;BME280;19962;47.820;1.930;2023-08-30T02:51:56;99971.63;;;16.99;79.21
33625;BME280;19962;47.820;1.930;2023-08-30T02:54:22;99973.84;;;17.02;79.37
33625;BME280;19962;47.820;1.930;2023-08-30T02:56:49;99967.69;;;17.05;78.88
33625;BME280;19962;47.820;1.930;2023-08-30T02:59:15;99974.09;;;17.05;79.23
33625;BME280;19962;47.820;1.930;2023-08-30T03:01:41;99967.69;;;17.05;79.18
33625;BME280;19962;47.820;1.930;2023-08-30T03:04:08;99967.16;;;17.03;79.33
33625;BME280;19962;47.820;1.930;2023-08-30T03:06:35;99972.75;;;16.98;79.55
33625;BME280;19962;47.820;1.930;2023-08-30T03:09:02;99971.88;;;17.02;79.35
33625;BME280;19962;47.820;1.930;2023-08-30T03:11:32;99965.00;;;16.95;79.42
33625;BME280;19962;47.820;1.930;2023-08-30T03:13:58;99962.75;;;17.02;79.47
33625;BME280;19962;47.820;1.930;2023-08-30T03:16:24;99968.84;;;16.99;79.66
33625;BME280;19962;47.820;1.930;2023-08-30T03:18:51;99966.09;;;16.99;79.58
33625;BME280;19962;47.820;1.930;2023-08-30T03:21:17;99965.81;;;17.00;79.84
33625;BME280;19962;47.820;1.930;2023-08-30T03:23:43;99966.09;;;16.99;79.82
33625;BME280;19962;47.820;1.930;2023-08-30T03:26:13;99971.63;;;16.99;79.91
33625;BME280;19962;47.820;1.930;2023-08-30T03:28:41;99965.25;;;16.98;80.09
33625;BME280;19962;47.820;1.930;2023-08-30T03:31:17;99965.78;;;17.05;79.80
33625;BME280;19962;47.820;1.930;2023-08-30T03:33:44;99969.94;;;17.03;79.84
33625;BME280;19962;47.820;1.930;2023-08-30T03:36:11;99966.63;;;17.01;79.79
33625;BME280;19962;47.820;1.930;2023-08-30T03:38:38;99964.41;;;17.03;80.07
33625;BME280;19962;47.820;1.930;2023-08-30T03:41:04;99964.41;;;17.03;79.82
33625;BME280;19962;47.820;1.930;2023-08-30T03:43:31;99963.25;;;17.09;80.06
33625;BME280;19962;47.820;1.930;2023-08-30T03:46:01;99971.03;;;17.07;79.90
33625;BME280;19962;47.820;1.930;2023-08-30T03:48:29;99962.13;;;17.10;79.93
33625;BME280;19962;47.820;1.930;2023-08-30T03:50:56;99969.34;;;17.11;79.61
33625;BME280;19962;47.820;1.930;2023-08-30T03:53:23;99953.28;;;17.08;80.23
33625;BME280;19962;47.820;1.930;2023-08-30T03:55:50;99952.72;;;17.06;80.09
33625;BME280;19962;47.820;1.930;2023-08-30T03:58:18;99946.91;;;17.07;80.35
33625;BME280;19962;47.820;1.930;2023-08-30T04:00:44;99954.94;;;17.09;80.20
33625;BME280;19962;47.820;1.930;2023-08-30T04:03:14;99946.06;;;17.12;80.21
33625;BME280;19962;47.820;1.930;2023-08-30T04:05:41;99951.63;;;17.07;80.11
33625;BME280;19962;47.820;1.930;2023-08-30T04:08:08;99952.72;;;17.11;80.28
33625;BME280;19962;47.820;1.930;2023-08-30T04:10:38;99958.75;;;17.18;80.20
33625;BME280;19962;47.820;1.930;2023-08-30T04:13:06;99959.03;;;17.16;80.13
33625;BME280;19962;47.820;1.930;2023-08-30T04:15:36;99952.69;;;17.16;80.30
33625;BME280;19962;47.820;1.930;2023-08-30T04:18:04;99956.53;;;17.15;80.04
33625;BME280;19962;47.820;1.930;2023-08-30T04:20:31;99954.91;;;17.14;80.09
33625;BME280;19962;47.820;1.930;2023-08-30T04:22:58;99957.66;;;17.14;80.43
33625;BME280;19962;47.820;1.930;2023-08-30T04:25:27;99957.13;;;17.12;80.35
33625;BME280;19962;47.820;1.930;2023-08-30T04:27:54;99953.25;;;17.13;80.55
33625;BME280;19962;47.820;1.930;2023-08-30T04:30:20;99952.97;;;17.14;80.35
33625;BME280;19962;47.820;1.930;2023-08-30T04:32:46;99946.28;;;17.15;80.24
33625;BME280;19962;47.820;1.930;2023-08-30T04:35:13;99937.69;;;17.17;80.33
33625;BME280;19962;47.820;1.930;2023-08-30T04:37:39;99925.50;;;17.18;80.53
33625;BME280;19962;47.820;1.930;2023-08-30T04:40:09;99931.31;;;17.16;80.53
33625;BME280;19962;47.820;1.930;2023-08-30T04:42:35;99929.41;;;17.12;80.80
33625;BME280;19962;47.820;1.930;2023-08-30T04:45:02;99928.00;;;17.14;81.03
33625;BME280;19962;47.820;1.930;2023-08-30T04:47:29;99928.81;;;17.20;80.98
33625;BME280;19962;47.820;1.930;2023-08-30T04:49:56;99932.94;;;17.22;80.69
33625;BME280;19962;47.820;1.930;2023-08-30T04:52:22;99937.13;;;17.20;80.76
33625;BME280;19962;47.820;1.930;2023-08-30T04:54:49;99931.31;;;17.16;80.65
33625;BME280;19962;47.820;1.930;2023-08-30T04:57:15;99940.53;;;17.07;81.21
33625;BME280;19962;47.820;1.930;2023-08-30T04:59:45;99942.16;;;17.13;81.37
33625;BME280;19962;47.820;1.930;2023-08-30T05:02:12;99939.91;;;17.15;81.10
33625;BME280;19962;47.820;1.930;2023-08-30T05:04:38;99943.25;;;17.17;80.95
33625;BME280;19962;47.820;1.930;2023-08-30T05:07:04;99948.50;;;17.18;80.95
33625;BME280;19962;47.820;1.930;2023-08-30T05:09:31;99945.44;;;17.20;80.90
33625;BME280;19962;47.820;1.930;2023-08-30T05:11:58;99940.44;;;17.22;81.03
33625;BME280;19962;47.820;1.930;2023-08-30T05:14:24;99927.13;;;17.24;81.00
33625;BME280;19962;47.820;1.930;2023-08-30T05:16:50;99932.91;;;17.27;80.78
33625;BME280;19962;47.820;1.930;2023-08-30T05:19:17;99934.03;;;17.26;80.85
33625;BME280;19962;47.820;1.930;2023-08-30T05:21:43;99932.63;;;17.29;80.83
33625;BME280;19962;47.820;1.930;2023-08-30T05:24:09;99926.25;;;17.28;80.71
33625;BME280;19962;47.820;1.930;2023-08-30T05:26:36;99929.84;;;17.29;81.06
33625;BME280;19962;47.820;1.930;2023-08-30T05:29:03;99935.94;;;17.31;80.78
33625;BME280;19962;47.820;1.930;2023-08-30T05:31:29;99932.66;;;17.24;80.89
33625;BME280;19962;47.820;1.930;2023-08-30T05:33:56;99929.84;;;17.29;81.11
33625;BME280;19962;47.820;1.930;2023-08-30T05:36:22;99924.56;;;17.32;81.04
33625;BME280;19962;47.820;1.930;2023-08-30T05:38:48;99918.72;;;17.34;80.79
33625;BME280;19962;47.820;1.930;2023-08-30T05:41:14;99934.25;;;17.35;81.00
33625;BME280;19962;47.820;1.930;2023-08-30T05:43:40;99932.31;;;17.35;81.24
33625;BME280;19962;47.820;1.930;2023-08-30T05:46:06;99927.31;;;17.32;81.12
33625;BME280;19962;47.820;1.930;2023-08-30T05:48:38;99930.63;;;17.34;81.02
33625;BME280;19962;47.820;1.930;2023-08-30T05:51:04;99925.38;;;17.33;81.24
33625;BME280;19962;47.820;1.930;2023-08-30T05:53:30;99925.38;;;17.33;81.28
33625;BME280;19962;47.820;1.930;2023-08-30T05:55:56;99921.22;;;17.35;80.96
33625;BME280;19962;47.820;1.930;2023-08-30T05:58:22;99923.16;;;17.35;81.11
33625;BME280;19962;47.820;1.930;2023-08-30T06:00:48;99930.59;;;17.39;81.51
33625;BME280;19962;47.820;1.930;2023-08-30T06:03:15;99922.56;;;17.43;81.02
33625;BME280;19962;47.820;1.930;2023-08-30T06:05:41;99920.91;;;17.42;81.20
33625;BME280;19962;47.820;1.930;2023-08-30T06:08:08;99921.44;;;17.44;81.37
33625;BME280;19962;47.820;1.930;2023-08-30T06:10:37;99920.59;;;17.43;81.24
33625;BME280;19962;47.820;1.930;2023-08-30T06:13:04;99930.00;;;17.48;81.09
33625;BME280;19962;47.820;1.930;2023-08-30T06:15:31;99928.91;;;17.49;81.08
33625;BME280;19962;47.820;1.930;2023-08-30T06:17:57;99929.72;;;17.49;81.08
33625;BME280;19962;47.820;1.930;2023-08-30T06:20:24;99928.31;;;17.52;81.13
33625;BME280;19962;47.820;1.930;2023-08-30T06:22:50;99922.41;;;17.58;81.10
33625;BME280;19962;47.820;1.930;2023-08-30T06:25:17;99924.91;;;17.60;80.89
33625;BME280;19962;47.820;1.930;2023-08-30T06:27:55;99928.22;;;17.62;80.92
33625;BME280;19962;47.820;1.930;2023-08-30T06:30:22;99929.63;;;17.59;81.16
33625;BME280;19962;47.820;1.930;2023-08-30T06:32:49;99929.56;;;17.64;81.13
33625;BME280;19962;47.820;1.930;2023-08-30T06:35:15;99931.78;;;17.67;81.20
33625;BME280;19962;47.820;1.930;2023-08-30T06:37:41;99935.56;;;17.76;81.00
33625;BME280;19962;47.820;1.930;2023-08-30T06:40:08;99934.94;;;17.84;80.64
33625;BME280;19962;47.820;1.930;2023-08-30T06:42:34;99932.13;;;17.89;80.31
33625;BME280;19962;47.820;1.930;2023-08-30T06:45:01;99932.59;;;17.96;80.25
33625;BME280;19962;47.820;1.930;2023-08-30T06:47:28;99932.56;;;18.01;80.28
33625;BME280;19962;47.820;1.930;2023-08-30T06:49:54;99931.66;;;18.06;79.95
33625;BME280;19962;47.820;1.930;2023-08-30T06:52:20;99934.16;;;18.07;80.25
33625;BME280;19962;47.820;1.930;2023-08-30T06:54:46;99938.56;;;18.08;80.21
33625;BME280;19962;47.820;1.930;2023-08-30T06:57:12;99932.94;;;18.13;80.26
33625;BME280;19962;47.820;1.930;2023-08-30T06:59:38;99931.25;;;18.17;80.27
33625;BME280;19962;47.820;1.930;2023-08-30T07:02:05;99929.25;;;18.23;79.83
33625;BME280;19962;47.820;1.930;2023-08-30T07:04:32;99932.81;;;18.28;79.77
33625;BME280;19962;47.820;1.930;2023-08-30T07:06:58;99932.47;;;18.35;79.51
33625;BME280;19962;47.820;1.930;2023-08-30T07:09:24;99940.97;;;18.43;79.12
33625;BME280;19962;47.820;1.930;2023-08-30T07:11:55;99939.81;;;18.49;79.14
33625;BME280;19962;47.820;1.930;2023-08-30T07:14:21;99932.00;;;18.51;78.99
33625;BME280;19962;47.820;1.930;2023-08-30T07:16:47;99935.28;;;18.53;78.89
33625;BME280;19962;47.820;1.930;2023-08-30T07:19:15;99938.31;;;18.57;78.87
33625;BME280;19962;47.820;1.930;2023-08-30T07:21:42;99938.47;;;18.65;78.64
33625;BME280;19962;47.820;1.930;2023-08-30T07:24:09;99933.97;;;18.69;78.56
33625;BME280;19962;47.820;1.930;2023-08-30T07:26:35;99942.25;;;18.74;78.64
33625;BME280;19962;47.820;1.930;2023-08-30T07:29:02;99934.97;;;18.78;78.43
33625;BME280;19962;47.820;1.930;2023-08-30T07:31:31;99936.31;;;18.81;78.39
33625;BME280;19962;47.820;1.930;2023-08-30T07:33:57;99941.06;;;18.80;78.28
33625;BME280;19962;47.820;1.930;2023-08-30T07:36:26;99941.38;;;18.79;78.65
33625;BME280;19962;47.820;1.930;2023-08-30T07:38:52;99939.94;;;18.81;78.70
33625;BME280;19962;47.820;1.930;2023-08-30T07:41:18;99938.16;;;18.90;78.47
33625;BME280;19962;47.820;1.930;2023-08-30T07:43:44;99936.44;;;18.94;78.52
33625;BME280;19962;47.820;1.930;2023-08-30T07:46:10;99945.19;;;19.01;78.06
33625;BME280;19962;47.820;1.930;2023-08-30T07:48:36;99941.84;;;19.04;77.97
33625;BME280;19962;47.820;1.930;2023-08-30T07:51:03;99946.81;;;19.07;78.16
33625;BME280;19962;47.820;1.930;2023-08-30T07:53:29;99940.78;;;19.00;78.44
33625;BME280;19962;47.820;1.930;2023-08-30T07:55:56;99945.75;;;19.03;78.51
33625;BME280;19962;47.820;1.930;2023-08-30T07:58:22;99945.00;;;19.16;78.11
33625;BME280;19962;47.820;1.930;2023-08-30T08:00:54;99946.56;;;19.22;78.24
33625;BME280;19962;47.820;1.930;2023-08-30T08:03:21;99949.00;;;19.29;77.80
33625;BME280;19962;47.820;1.930;2023-08-30T08:05:47;99943.06;;;19.35;77.94
33625;BME280;19962;47.820;1.930;2023-08-30T08:08:14;99940.03;;;19.50;77.37
33625;BME280;19962;47.820;1.930;2023-08-30T08:10:41;99941.75;;;19.46;77.82
33625;BME280;19962;47.820;1.930;2023-08-30T08:13:08;99929.66;;;19.37;77.85
33625;BME280;19962;47.820;1.930;2023-08-30T08:15:34;99933.75;;;19.45;77.75
33625;BME280;19962;47.820;1.930;2023-08-30T08:18:01;99936.09;;;19.51;78.73
33625;BME280;19962;47.820;1.930;2023-08-30T08:20:29;99948.94;;;19.66;78.49
33625;BME280;19962;47.820;1.930;2023-08-30T08:22:56;99946.41;;;19.69;78.21
33625;BME280;19962;47.820;1.930;2023-08-30T08:25:22;99946.47;;;19.64;78.56
33625;BME280;19962;47.820;1.930;2023-08-30T08:27:49;99950.59;;;19.67;78.40
33625;BME280;19962;47.820;1.930;2023-08-30T08:30:17;99948.75;;;19.76;78.35
33625;BME280;19962;47.820;1.930;2023-08-30T08:32:45;99945.59;;;19.82;78.33
33625;BME280;19962;47.820;1.930;2023-08-30T08:35:11;99948.41;;;19.96;77.80
33625;BME280;19962;47.820;1.930;2023-08-30T08:37:37;99946.38;;;20.01;77.68
33625;BME280;19962;47.820;1.930;2023-08-30T08:40:04;99956.47;;;19.97;77.51
33625;BME280;19962;47.820;1.930;2023-08-30T08:42:35;99956.97;;;19.86;78.13
33625;BME280;19962;47.820;1.930;2023-08-30T08:45:03;99962.81;;;19.84;78.07
33625;BME280;19962;47.820;1.930;2023-08-30T08:47:31;99964.06;;;19.78;78.43
33625;BME280;19962;47.820;1.930;2023-08-30T08:49:57;99965.69;;;19.79;78.79
33625;BME280;19962;47.820;1.930;2023-08-30T08:52:24;99969.16;;;19.71;78.89
33625;BME280;19962;47.820;1.930;2023-08-30T08:54:52;99961.41;;;19.68;78.94
33625;BME280;19962;47.820;1.930;2023-08-30T08:57:21;99962.13;;;19.60;79.06
33625;BME280;19962;47.820;1.930;2023-08-30T08:59:47;99966.66;;;19.56;79.05
33625;BME280;19962;47.820;1.930;2023-08-30T09:02:14;99971.75;;;19.49;78.99
33625;BME280;19962;47.820;1.930;2023-08-30T09:04:41;99980.19;;;19.44;79.45
33625;BME280;19962;47.820;1.930;2023-08-30T09:07:07;99977.31;;;19.31;79.83
33625;BME280;19962;47.820;1.930;2023-08-30T09:09:34;99984.72;;;19.17;81.08
33625;BME280;19962;47.820;1.930;2023-08-30T09:12:00;99989.59;;;19.06;82.19
33625;BME280;19962;47.820;1.930;2023-08-30T09:14:26;99987.44;;;19.03;82.69
33625;BME280;19962;47.820;1.930;2023-08-30T09:17:02;100000.50;;;19.03;83.12
33625;BME280;19962;47.820;1.930;2023-08-30T09:19:29;100001.72;;;18.97;84.25
33625;BME280;19962;47.820;1.930;2023-08-30T09:21:59;99999.16;;;19.00;84.28
33625;BME280;19962;47.820;1.930;2023-08-30T09:24:26;100001.56;;;19.07;85.03
33625;BME280;19962;47.820;1.930;2023-08-30T09:26:53;99996.84;;;19.07;84.88
33625;BME280;19962;47.820;1.930;2023-08-30T09:29:21;99994.38;;;19.06;85.38
33625;BME280;19962;47.820;1.930;2023-08-30T09:31:51;100003.06;;;19.18;85.56
33625;BME280;19962;47.820;1.930;2023-08-30T09:34:24;99998.22;;;19.28;84.86
33625;BME280;19962;47.820;1.930;2023-08-30T09:36:54;99993.72;;;19.32;84.81
33625;BME280;19962;47.820;1.930;2023-08-30T09:39:21;99998.16;;;19.33;85.31
33625;BME280;19962;47.820;1.930;2023-08-30T09:41:48;99995.91;;;19.35;85.94
33625;BME280;19962;47.820;1.930;2023-08-30T09:44:21;100000.78;;;19.43;87.05
33625;BME280;19962;47.820;1.930;2023-08-30T09:46:52;100005.97;;;19.31;86.99
33625;BME280;19962;47.820;1.930;2023-08-30T09:49:21;100010.41;;;19.32;86.58
33625;BME280;19962;47.820;1.930;2023-08-30T09:51:48;100003.19;;;19.31;86.21
33625;BME280;19962;47.820;1.930;2023-08-30T09:54:19;100005.47;;;19.29;86.93
33625;BME280;19962;47.820;1.930;2023-08-30T09:56:46;100008.28;;;19.24;87.09
33625;BME280;19962;47.820;1.930;2023-08-30T09:59:14;100008.28;;;19.24;88.68
33625;BME280;19962;47.820;1.930;2023-08-30T10:01:41;100005.97;;;19.31;88.78
33625;BME280;19962;47.820;1.930;2023-08-30T10:04:08;100012.78;;;19.20;89.29
33625;BME280;19962;47.820;1.930;2023-08-30T10:06:36;100026.06;;;19.05;89.57
33625;BME280;19962;47.820;1.930;2023-08-30T10:09:03;100022.59;;;18.94;89.54
33625;BME280;19962;47.820;1.930;2023-08-30T10:11:36;100018.28;;;18.83;89.65
33625;BME280;19962;47.820;1.930;2023-08-30T10:14:04;100013.63;;;18.97;88.70
33625;BME280;19962;47.820;1.930;2023-08-30T10:16:37;100025.31;;;18.99;87.83
33625;BME280;19962;47.820;1.930;2023-08-30T10:19:10;100021.53;;;18.90;88.00
33625;BME280;19962;47.820;1.930;2023-08-30T10:21:36;100017.41;;;18.88;88.39
33625;BME280;19962;47.820;1.930;2023-08-30T10:24:06;100015.34;;;18.93;88.17
33625;BME280;19962;47.820;1.930;2023-08-30T10:26:34;100017.63;;;18.91;88.02
33625;BME280;19962;47.820;1.930;2023-08-30T10:29:04;100019.53;;;18.96;88.01
33625;BME280;19962;47.820;1.930;2023-08-30T10:31:31;100014.47;;;18.98;87.39
33625;BME280;19962;47.820;1.930;2023-08-30T10:33:57;100023.59;;;19.03;87.34
33625;BME280;19962;47.820;1.930;2023-08-30T10:36:24;100020.16;;;19.11;86.73
33625;BME280;19962;47.820;1.930;2023-08-30T10:38:54;100021.63;;;19.04;86.34
33625;BME280;19962;47.820;1.930;2023-08-30T10:43:52;100000.97;;;19.10;85.28
33625;BME280;19962;47.820;1.930;2023-08-30T10:46:34;100003.69;;;19.15;85.59
33625;BME280;19962;47.820;1.930;2023-08-30T10:49:12;100003.31;;;19.21;84.93
33625;BME280;19962;47.820;1.930;2023-08-30T10:51:41;100001.91;;;19.24;84.71
33625;BME280;19962;47.820;1.930;2023-08-30T10:54:15;99999.41;;;19.22;84.61
33625;BME280;19962;47.820;1.930;2023-08-30T10:56:57;100002.41;;;19.07;85.01
33625;BME280;19962;47.820;1.930;2023-08-30T10:59:27;100006.72;;;18.95;85.57
33625;BME280;19962;47.820;1.930;2023-08-30T11:01:55;100014.53;;;18.93;85.86
33625;BME280;19962;47.820;1.930;2023-08-30T11:04:24;100004.78;;;18.95;86.02
33625;BME280;19962;47.820;1.930;2023-08-30T11:06:51;99991.78;;;19.09;85.96
33625;BME280;19962;47.820;1.930;2023-08-30T11:09:19;99993.72;;;19.32;85.50
33625;BME280;19962;47.820;1.930;2023-08-30T11:11:47;99984.25;;;19.52;84.87
33625;BME280;19962;47.820;1.930;2023-08-30T11:14:15;99982.13;;;19.62;84.21
33625;BME280;19962;47.820;1.930;2023-08-30T11:16:41;99986.84;;;19.62;84.48
33625;BME280;19962;47.820;1.930;2023-08-30T11:19:09;99987.19;;;19.60;85.37
33625;BME280;19962;47.820;1.930;2023-08-30T11:21:38;99982.00;;;19.54;85.58
33625;BME280;19962;47.820;1.930;2023-08-30T11:24:05;99994.00;;;19.49;86.39
33625;BME280;19962;47.820;1.930;2023-08-30T11:26:32;99993.63;;;19.56;85.94
33625;BME280;19962;47.820;1.930;2023-08-30T11:29:03;99999.88;;;19.66;85.39
33625;BME280;19962;47.820;1.930;2023-08-30T11:31:29;100001.59;;;19.62;85.07
33625;BME280;19962;47.820;1.930;2023-08-30T11:33:57;99999.88;;;19.66;84.86
33625;BME280;19962;47.820;1.930;2023-08-30T11:36:29;100007.00;;;19.72;84.59
33625;BME280;19962;47.820;1.930;2023-08-30T11:38:55;99998.66;;;19.72;84.57
33625;BME280;19962;47.820;1.930;2023-08-30T11:41:22;100005.06;;;19.73;84.82
33625;BME280;19962;47.820;1.930;2023-08-30T11:43:51;100008.91;;;19.58;84.99
33625;BME280;19962;47.820;1.930;2023-08-30T11:46:18;100012.44;;;19.45;85.75
33625;BME280;19962;47.820;1.930;2023-08-30T11:48:46;100012.38;;;19.32;86.05
33625;BME280;19962;47.820;1.930;2023-08-30T11:51:13;100013.47;;;19.31;86.30
33625;BME280;19962;47.820;1.930;2023-08-30T11:53:40;100013.03;;;19.24;86.82
33625;BME280;19962;47.820;1.930;2023-08-30T11:56:07;100028.81;;;19.28;86.86
33625;BME280;19962;47.820;1.930;2023-08-30T11:58:35;100026.16;;;19.18;86.66
33625;BME280;19962;47.820;1.930;2023-08-30T12:01:02;100021.78;;;19.12;86.32
33625;BME280;19962;47.820;1.930;2023-08-30T12:03:32;100021.09;;;19.25;86.13
33625;BME280;19962;47.820;1.930;2023-08-30T12:05:58;100021.38;;;19.42;85.28
33625;BME280;19962;47.820;1.930;2023-08-30T12:08:29;100015.13;;;19.50;85.72
33625;BME280;19962;47.820;1.930;2023-08-30T12:10:57;100014.41;;;19.45;85.19
33625;BME280;19962;47.820;1.930;2023-08-30T12:15:52;100024.94;;;19.29;86.96
33625;BME280;19962;47.820;1.930;2023-08-30T12:18:23;100028.63;;;19.43;86.66
33625;BME280;19962;47.820;1.930;2023-08-30T12:20:57;100018.28;;;19.44;86.54
33625;BME280;19962;47.820;1.930;2023-08-30T12:23:25;100024.53;;;19.54;86.09
33625;BME280;19962;47.820;1.930;2023-08-30T12:28:30;100020.56;;;19.60;85.76
33625;BME280;19962;47.820;1.930;2023-08-30T12:30:58;100018.22;;;19.67;85.42
33625;BME280;19962;47.820;1.930;2023-08-30T12:33:25;100017.22;;;19.77;84.61
33625;BME280;19962;47.820;1.930;2023-08-30T12:35:52;100020.97;;;19.86;84.28
33625;BME280;19962;47.820;1.930;2023-08-30T12:38:18;100016.47;;;19.90;84.05
33625;BME280;19962;47.820;1.930;2023-08-30T12:40:49;100017.50;;;19.94;83.86
33625;BME280;19962;47.820;1.930;2023-08-30T12:43:16;100021.78;;;19.86;84.18
33625;BME280;19962;47.820;1.930;2023-08-30T12:45:43;100026.41;;;19.77;84.49
33625;BME280;19962;47.820;1.930;2023-08-30T12:48:11;100023.59;;;19.77;84.48
33625;BME280;19962;47.820;1.930;2023-08-30T12:50:38;100014.66;;;19.80;83.99
33625;BME280;19962;47.820;1.930;2023-08-30T12:53:07;100009.66;;;19.96;84.38
33625;BME280;19962;47.820;1.930;2023-08-30T12:55:34;100011.41;;;20.10;83.67
33625;BME280;19962;47.820;1.930;2023-08-30T12:58:00;100011.91;;;20.12;83.03
33625;BME280;19962;47.820;1.930;2023-08-30T13:00:26;100015.22;;;20.14;83.42
33625;BME280;19962;47.820;1.930;2023-08-30T13:02:53;100007.97;;;20.13;82.98
33625;BME280;19962;47.820;1.930;2023-08-30T13:05:19;100005.25;;;19.95;83.50
33625;BME280;19962;47.820;1.930;2023-08-30T13:07:46;100011.00;;;19.98;84.38
33625;BME280;19962;47.820;1.930;2023-08-30T13:10:12;100001.91;;;20.11;84.30